Time;durP1;ratioP1;P1;durP2;ratioP2;P2;SDS_P1;SDS_P2;PMS_P1;PMS_P2;Temp;Humidity;BMP_temperature;BMP_pressure;BME280_temperature;BME280_humidity;BME280_pressure;Samples;Min_cycle;Max_cycle;Signal;HPM_P1;HPM_P2
2022/05/09 00:00:30;;;;;;;0.40;0.20;;;;;;;13.35;94.81;95764.38;5091621;28;20428;-64
2022/05/09 00:03:00;;;;;;;0.63;0.37;;;;;;;13.24;94.02;95767.38;5091539;28;20469;-64
2022/05/09 00:05:29;;;;;;;0.40;0.20;;;;;;;13.18;95.96;95755.94;5091474;28;21145;-64
2022/05/09 00:07:58;;;;;;;0.40;0.20;;;;;;;11.87;93.12;95543.81;5091401;28;20524;-64
2022/05/09 00:10:29;;;;;;;0.40;0.20;;;;;;;12.93;91.87;95731.31;5090462;28;20427;-64
2022/05/09 00:12:58;;;;;;;0.40;0.30;;;;;;;12.83;98.94;95753.41;5091706;28;20475;-63
2022/05/09 00:15:26;;;;;;;0.40;0.30;;;;;;;12.87;98.11;95743.84;5091684;28;20489;-63
2022/05/09 00:17:54;;;;;;;0.40;0.20;;;;;;;13.10;94.24;95758.41;5091376;28;20480;-63
2022/05/09 00:20:24;;;;;;;0.40;0.20;;;;;;;12.99;95.43;95752.28;5091459;28;20435;-63
2022/05/09 00:22:54;;;;;;;0.40;0.30;;;;;;;13.02;95.25;95750.94;5095102;28;20474;-63
2022/05/09 00:25:26;;;;;;;0.40;0.30;;;;;;;12.65;99.52;95746.81;5103476;28;20431;-64
2022/05/09 00:27:55;;;;;;;0.50;0.40;;;;;;;12.47;100.00;95742.09;5095518;28;20432;-63
2022/05/09 00:30:23;;;;;;;0.30;0.20;;;;;;;12.66;100.00;95742.31;5095791;28;20463;-63
2022/05/09 00:32:52;;;;;;;0.40;0.20;;;;;;;12.47;98.97;95739.44;5095236;28;20507;-63
2022/05/09 00:35:20;;;;;;;0.40;0.30;;;;;;;12.43;100.00;95750.88;5095725;28;20452;-64
2022/05/09 00:37:50;;;;;;;0.40;0.20;;;;;;;12.83;96.47;95755.28;5095075;28;20493;-62
2022/05/09 00:40:19;;;;;;;0.40;0.20;;;;;;;12.96;93.92;95752.03;5094864;28;20420;-63
2022/05/09 00:42:49;;;;;;;0.40;0.20;;;;;;;13.08;93.18;95758.66;5094375;28;20483;-63
2022/05/09 00:45:19;;;;;;;0.37;0.20;;;;;;;13.16;91.85;95750.09;5093595;28;20503;-63
2022/05/09 00:47:47;;;;;;;0.40;0.20;;;;;;;13.15;92.02;95766.34;5094489;28;20467;-63
2022/05/09 00:50:20;;;;;;;0.40;0.20;;;;;;;13.09;92.24;95757.59;5093632;28;20460;-63
2022/05/09 00:52:53;;;;;;;0.40;0.30;;;;;;;13.07;91.19;95742.97;5094523;28;20849;-63
2022/05/09 00:55:25;;;;;;;0.40;0.20;;;;;;;13.16;91.76;95751.97;5093819;28;20512;-63
2022/05/09 00:58:00;;;;;;;1.33;0.30;;;;;;;13.14;91.26;95748.78;5094651;28;20618;-63
2022/05/09 01:00:29;;;;;;;0.63;0.47;;;;;;;13.22;91.30;95757.00;5093284;28;20980;-63
2022/05/09 01:03:02;;;;;;;0.33;0.20;;;;;;;13.35;90.83;95751.06;5094335;28;20432;-63
2022/05/09 01:05:32;;;;;;;0.37;0.20;;;;;;;13.30;92.34;95761.75;5094463;28;20424;-63
2022/05/09 01:08:01;;;;;;;0.40;0.30;;;;;;;13.27;92.10;95764.16;5094341;28;20428;-63
2022/05/09 01:10:32;;;;;;;0.40;0.20;;;;;;;13.29;89.99;95757.50;5093362;28;20428;-63
2022/05/09 01:13:03;;;;;;;0.30;0.20;;;;;;;13.28;91.40;95760.44;5094403;28;20558;-63
2022/05/09 01:15:33;;;;;;;0.30;0.20;;;;;;;13.23;92.69;95755.91;5094555;28;20481;-63
2022/05/09 01:18:05;;;;;;;0.30;0.20;;;;;;;13.27;89.72;95764.16;5094194;28;21036;-63
2022/05/09 01:20:34;;;;;;;0.40;0.20;;;;;;;13.16;90.98;95767.94;5094507;28;20426;-63
2022/05/09 01:23:05;;;;;;;0.40;0.20;;;;;;;13.22;89.66;95766.84;5094180;28;20468;-63
2022/05/09 01:25:34;;;;;;;0.40;0.20;;;;;;;13.24;89.59;95759.38;5093998;28;20507;-63
2022/05/09 01:28:02;;;;;;;0.40;0.20;;;;;;;13.16;89.80;95759.94;5093832;28;20431;-63
2022/05/09 01:30:39;;;;;;;0.40;0.30;;;;;;;13.10;90.09;95751.22;5093604;28;20432;-63
2022/05/09 01:33:13;;;;;;;0.40;0.20;;;;;;;13.07;90.55;95758.94;5092302;28;20479;-63
2022/05/09 01:35:48;;;;;;;0.40;0.20;;;;;;;12.70;98.69;95772.59;5093669;28;20515;-63
2022/05/09 01:38:21;;;;;;;0.30;0.20;;;;;;;12.74;96.66;95755.84;5093860;28;20432;-62
2022/05/09 01:40:49;;;;;;;0.40;0.20;;;;;;;12.82;96.43;95762.47;5094252;28;20861;-63
2022/05/09 01:43:30;;;;;;;0.40;0.30;;;;;;;12.72;98.03;95768.59;5093512;28;20428;-63
2022/05/09 01:45:58;;;;;;;0.40;0.40;;;;;;;12.84;95.20;95764.84;5093464;28;20451;-63
2022/05/09 01:51:13;;;;;;;0.30;0.20;;;;;;;12.16;95.43;95668.84;5093553;28;20424;-63
2022/05/09 01:53:45;;;;;;;0.40;0.30;;;;;;;12.70;96.38;95768.09;5093282;28;20503;-63
2022/05/09 01:56:13;;;;;;;0.30;0.20;;;;;;;12.41;94.34;95692.69;5093502;28;20528;-63
2022/05/09 01:58:42;;;;;;;0.40;0.30;;;;;;;12.88;93.72;95766.69;5093135;28;20428;-63
2022/05/09 02:01:11;;;;;;;2.33;2.23;;;;;;;12.81;94.95;95770.72;5093503;28;20543;-63
2022/05/09 02:03:39;;;;;;;0.30;0.20;;;;;;;12.73;93.70;95775.53;5093444;28;20808;-63
2022/05/09 02:06:09;;;;;;;0.40;0.20;;;;;;;12.79;93.59;95772.84;5093302;28;20413;-63
2022/05/09 02:08:38;;;;;;;0.40;0.30;;;;;;;12.48;98.05;95766.81;5093061;28;20428;-63
2022/05/09 02:11:08;;;;;;;0.40;0.20;;;;;;;12.30;95.50;95733.63;5093287;28;20436;-63
2022/05/09 02:13:36;;;;;;;0.40;0.33;;;;;;;12.66;94.11;95767.06;5093102;28;20558;-63
2022/05/09 02:16:05;;;;;;;0.40;0.30;;;;;;;12.72;94.49;95778.47;5093090;28;20460;-63
2022/05/09 02:18:35;;;;;;;0.40;0.20;;;;;;;12.29;97.74;95753.31;5093015;28;20439;-63
2022/05/09 02:21:04;;;;;;;0.40;0.40;;;;;;;12.43;98.80;95780.13;5093196;28;20455;-63
2022/05/09 02:23:34;;;;;;;0.40;0.20;;;;;;;12.13;99.39;95735.81;5093174;28;20502;-63
2022/05/09 02:26:03;;;;;;;0.30;0.20;;;;;;;12.22;100.00;95790.00;5093214;28;20486;-63
2022/05/09 02:28:33;;;;;;;0.40;0.20;;;;;;;12.28;98.65;95788.13;5092912;28;20421;-63
2022/05/09 02:31:01;;;;;;;0.40;0.20;;;;;;;12.31;99.82;95785.75;5092863;28;20481;-63
2022/05/09 02:33:30;;;;;;;0.63;0.63;;;;;;;12.52;96.67;95787.28;5094152;28;20499;-63
2022/05/09 02:35:58;;;;;;;0.40;0.20;;;;;;;12.46;96.71;95791.03;5102651;28;20436;-63
2022/05/09 02:38:29;;;;;;;0.97;0.30;;;;;;;12.41;96.00;95788.38;5093497;28;20429;-63
2022/05/09 02:40:57;;;;;;;0.30;0.20;;;;;;;11.81;97.73;95717.53;5094046;28;20420;-62
2022/05/09 02:43:26;;;;;;;0.40;0.30;;;;;;;12.12;100.00;95800.63;5092777;28;20433;-62
2022/05/09 02:46:03;;;;;;;0.40;0.20;;;;;;;11.83;100.00;95786.28;5092574;28;20429;-63
2022/05/09 02:48:32;;;;;;;0.40;0.20;;;;;;;11.86;100.00;95796.41;5092751;28;20455;-63
2022/05/09 02:51:01;;;;;;;0.40;0.20;;;;;;;11.64;100.00;95795.81;5092744;28;20425;-62
2022/05/09 02:53:29;;;;;;;0.33;0.27;;;;;;;11.32;100.00;95803.97;5092505;28;20471;-62
2022/05/09 02:55:59;;;;;;;0.33;0.20;;;;;;;11.23;100.00;95805.56;5092114;28;20953;-62
2022/05/09 02:58:27;;;;;;;0.40;0.40;;;;;;;11.08;100.00;95795.66;5092513;28;20433;-62
2022/05/09 03:00:57;;;;;;;0.40;0.20;;;;;;;10.85;100.00;95727.19;5092134;28;20433;-62
2022/05/09 03:06:13;;;;;;;3.03;0.57;;;;;;;11.26;100.00;95800.50;5094293;28;20501;-63
2022/05/09 03:08:42;;;;;;;0.40;0.20;;;;;;;11.14;100.00;95780.56;5092906;28;20481;-62
2022/05/09 03:11:20;;;;;;;0.40;0.20;;;;;;;11.51;100.00;95807.72;5097240;28;20466;-64
2022/05/09 03:13:49;;;;;;;5.77;0.70;;;;;;;11.59;100.00;95806.41;5095156;28;20996;-62
2022/05/09 03:16:25;;;;;;;0.40;0.20;;;;;;;11.52;100.00;95811.19;5096308;28;20922;-63
2022/05/09 03:18:55;;;;;;;0.37;0.20;;;;;;;10.86;100.00;95779.13;5099272;28;20440;-63
2022/05/09 03:21:27;;;;;;;0.30;0.20;;;;;;;11.14;100.00;95793.81;5098840;28;20428;-64
2022/05/09 03:23:56;;;;;;;0.40;0.27;;;;;;;11.31;100.00;95811.13;5096290;28;20437;-64
2022/05/09 03:26:25;;;;;;;0.30;0.20;;;;;;;11.44;100.00;95820.44;5098522;28;20448;-64
2022/05/09 03:28:54;;;;;;;0.40;0.20;;;;;;;11.42;100.00;95796.03;5100395;28;20485;-64
2022/05/09 03:31:24;;;;;;;0.30;0.30;;;;;;;11.19;100.00;95829.13;5093864;28;20486;-64
2022/05/09 03:33:54;;;;;;;0.50;0.43;;;;;;;10.12;100.00;95611.59;5096908;28;20480;-64
2022/05/09 03:36:22;;;;;;;0.30;0.20;;;;;;;11.52;100.00;95817.28;5091978;28;20482;-64
2022/05/09 03:38:54;;;;;;;1.17;1.07;;;;;;;11.55;100.00;95747.75;5095832;28;20504;-61
2022/05/09 03:41:24;;;;;;;0.50;0.30;;;;;;;12.54;100.00;95830.38;5094672;28;20463;-62
2022/05/09 03:43:52;;;;;;;0.40;0.30;;;;;;;13.37;100.00;95835.97;5092859;28;20499;-62
2022/05/09 03:46:21;;;;;;;0.37;0.20;;;;;;;13.65;100.00;95827.31;5092731;28;20511;-61
2022/05/09 03:48:52;;;;;;;0.40;0.30;;;;;;;13.42;100.00;95819.97;5093330;28;20436;-62
2022/05/09 03:51:20;;;;;;;0.40;0.20;;;;;;;13.67;100.00;95811.84;5093632;28;20440;-63
2022/05/09 03:53:49;;;;;;;0.40;0.20;;;;;;;13.47;100.00;95822.63;5093322;28;20504;-62
2022/05/09 03:56:18;;;;;;;0.30;0.20;;;;;;;13.48;100.00;95826.88;5096447;28;20508;-62
2022/05/09 03:58:48;;;;;;;0.40;0.20;;;;;;;14.54;100.00;95823.47;5100578;28;20941;-62
2022/05/09 04:01:17;;;;;;;0.47;0.37;;;;;;;14.38;100.00;95833.47;5098434;28;20459;-62
2022/05/09 04:03:47;;;;;;;0.30;0.20;;;;;;;14.20;100.00;95833.31;5098087;28;20436;-62
2022/05/09 04:06:17;;;;;;;0.40;0.40;;;;;;;14.56;100.00;95824.78;5098162;28;20712;-63
2022/05/09 04:08:46;;;;;;;0.50;0.50;;;;;;;14.29;100.00;95829.00;5100827;28;20432;-63
2022/05/09 04:11:20;;;;;;;0.30;0.20;;;;;;;14.59;100.00;95823.41;5100752;28;20456;-63
2022/05/09 04:13:52;;;;;;;1.90;0.30;;;;;;;14.43;100.00;95790.75;5104255;28;20466;-64
2022/05/09 04:19:07;;;;;;;0.67;0.37;;;;;;;14.79;100.00;95839.22;5103763;28;20424;-63
2022/05/09 04:21:44;;;;;;;1.40;0.97;;;;;;;14.84;100.00;95831.16;5102204;28;20420;-64
2022/05/09 04:24:13;;;;;;;2.70;2.50;;;;;;;14.73;100.00;95828.84;5101065;28;20432;-63
2022/05/09 04:26:41;;;;;;;0.50;0.50;;;;;;;14.38;100.00;95838.00;5099951;28;20417;-64
2022/05/09 04:29:10;;;;;;;0.73;0.73;;;;;;;13.32;100.00;95836.00;5099385;28;20506;-62
2022/05/09 04:31:39;;;;;;;0.77;0.77;;;;;;;12.00;100.00;95837.28;5101281;28;20446;-64
2022/05/09 04:34:07;;;;;;;0.40;0.30;;;;;;;12.82;100.00;95836.16;5098303;28;20495;-63
2022/05/09 04:36:39;;;;;;;0.40;0.20;;;;;;;12.81;100.00;95845.19;5098395;28;20511;-63
2022/05/09 04:39:08;;;;;;;1.37;0.80;;;;;;;13.42;100.00;95845.81;5098100;28;20428;-63
2022/05/09 04:41:37;;;;;;;0.60;0.60;;;;;;;12.77;100.00;95846.81;5097885;28;20460;-63
2022/05/09 04:44:05;;;;;;;0.40;0.37;;;;;;;12.60;100.00;95842.56;5098021;28;20848;-64
2022/05/09 04:46:34;;;;;;;0.50;0.50;;;;;;;12.62;100.00;95783.81;5097959;28;20436;-63
2022/05/09 04:49:03;;;;;;;1.60;0.40;;;;;;;13.56;100.00;95847.59;5098139;28;20442;-63
2022/05/09 04:51:32;;;;;;;0.60;0.57;;;;;;;13.74;100.00;95838.97;5097956;28;20989;-63
2022/05/09 04:54:02;;;;;;;0.50;0.30;;;;;;;14.25;100.00;95844.75;5098142;28;20491;-63
2022/05/09 04:56:30;;;;;;;0.30;0.20;;;;;;;14.61;100.00;95845.25;5099146;28;20452;-63
2022/05/09 04:58:59;;;;;;;0.73;0.50;;;;;;;14.56;100.00;95845.31;5098323;28;20424;-62
2022/05/09 05:01:27;;;;;;;0.40;0.30;;;;;;;14.55;100.00;95835.72;5098514;28;20504;-64
2022/05/09 05:03:56;;;;;;;0.40;0.30;;;;;;;14.43;100.00;95848.63;5097958;28;20825;-63
2022/05/09 05:06:24;;;;;;;0.90;0.90;;;;;;;14.48;100.00;95843.25;5097833;28;20435;-63
2022/05/09 05:08:53;;;;;;;0.40;0.30;;;;;;;14.56;100.00;95839.97;5094609;28;20457;-63
2022/05/09 05:11:23;;;;;;;0.47;0.43;;;;;;;14.67;100.00;95838.81;5094579;28;20437;-64
2022/05/09 05:13:51;;;;;;;0.53;0.43;;;;;;;15.23;100.00;95844.31;5093865;28;20550;-63
2022/05/09 05:16:59;;;;;;;0.47;0.47;;;;;;;15.32;100.00;95839.16;5094344;28;20436;-63
2022/05/09 05:19:08;;;;;;;0.80;0.80;;;;;;;15.50;100.00;95841.09;5093908;28;20475;-63
2022/05/09 05:21:36;;;;;;;2.60;2.20;;;;;;;13.94;91.90;95844.16;5093860;28;20471;-62
2022/05/09 05:24:05;;;;;;;0.40;0.40;;;;;;;13.81;100.00;95796.06;5094449;28;20994;-62
2022/05/09 05:26:35;;;;;;;0.50;0.50;;;;;;;14.74;100.00;95844.59;5094426;28;20493;-62
2022/05/09 05:29:04;;;;;;;0.40;0.30;;;;;;;13.70;91.68;95856.59;5094440;28;20454;-61
2022/05/09 05:31:37;;;;;;;0.60;0.60;;;;;;;13.29;90.11;95850.66;5094529;28;20486;-62
2022/05/09 05:34:06;;;;;;;1.43;0.50;;;;;;;13.11;91.81;95851.25;5094295;28;20470;-61
2022/05/09 05:36:34;;;;;;;0.70;0.70;;;;;;;13.09;90.49;95833.97;5094390;28;20485;-62
2022/05/09 05:39:03;;;;;;;0.40;0.33;;;;;;;13.70;86.90;95851.25;5093842;28;20945;-62
2022/05/09 05:41:33;;;;;;;1.53;0.80;;;;;;;13.70;87.64;95855.78;5093889;28;20468;-62
2022/05/09 05:44:02;;;;;;;3.10;0.73;;;;;;;12.87;91.99;95844.13;5094006;28;20551;-62
2022/05/09 05:46:31;;;;;;;0.53;0.43;;;;;;;13.07;89.44;95849.41;5094644;28;20739;-61
2022/05/09 05:49:00;;;;;;;0.53;0.53;;;;;;;13.19;86.39;95853.38;5094022;28;20464;-62
2022/05/09 05:51:28;;;;;;;2.83;1.47;;;;;;;13.31;86.37;95850.38;5094016;28;20972;-67
2022/05/09 05:53:58;;;;;;;0.60;0.60;;;;;;;13.12;84.75;95849.41;5094033;28;20460;-60
2022/05/09 05:56:27;;;;;;;0.50;0.40;;;;;;;14.00;80.63;95836.94;5094170;28;20415;-69
2022/05/09 05:58:55;;;;;;;0.40;0.20;;;;;;;14.04;76.49;95850.53;5093853;28;20520;-64
2022/05/09 06:01:25;;;;;;;1.80;1.70;;;;;;;14.14;74.56;95855.78;5093401;28;20897;-57
2022/05/09 06:03:53;;;;;;;0.33;0.20;;;;;;;14.75;72.33;95851.50;5094124;28;20483;-62
2022/05/09 06:06:22;;;;;;;0.40;0.30;;;;;;;15.30;76.23;95836.78;5093395;28;20456;-63
2022/05/09 06:08:50;;;;;;;0.50;0.40;;;;;;;14.63;67.88;95857.25;5093898;28;20503;-65
2022/05/09 06:11:19;;;;;;;0.50;0.40;;;;;;;15.15;66.18;95852.97;5093484;28;20988;-65
2022/05/09 06:13:47;;;;;;;0.50;0.37;;;;;;;15.95;68.56;95843.13;5093425;28;20876;-64
2022/05/09 06:16:16;;;;;;;0.50;0.40;;;;;;;16.48;61.23;95849.00;5093396;28;20530;-61
2022/05/09 06:18:51;;;;;;;0.50;0.40;;;;;;;16.31;62.16;95835.38;5093206;28;20516;-64
2022/05/09 06:21:21;;;;;;;0.57;0.50;;;;;;;16.34;56.43;95846.25;5093164;28;20485;-64
2022/05/09 06:23:52;;;;;;;0.50;0.30;;;;;;;16.27;56.18;95843.16;5094301;28;20419;-61
2022/05/09 06:26:22;;;;;;;1.00;0.87;;;;;;;17.29;57.40;95845.66;5093486;28;20424;-60
2022/05/09 06:28:51;;;;;;;0.40;0.30;;;;;;;18.10;55.34;95842.06;5093332;28;20511;-55
2022/05/09 06:31:19;;;;;;;1.00;0.40;;;;;;;17.75;65.19;95840.19;5093202;28;20456;-56
2022/05/09 06:33:49;;;;;;;1.83;0.50;;;;;;;18.21;67.66;95832.69;5093146;28;20468;-63
2022/05/09 06:36:17;;;;;;;0.80;0.57;;;;;;;18.21;67.60;95824.66;5091799;28;20464;-63
2022/05/09 06:38:46;;;;;;;0.50;0.50;;;;;;;18.69;69.19;95835.56;5093000;28;20433;-59
2022/05/09 06:41:14;;;;;;;4.53;0.57;;;;;;;18.85;75.77;95836.75;5093062;28;20416;-59
2022/05/09 06:43:43;;;;;;;0.40;0.30;;;;;;;18.71;51.52;95819.13;5092988;28;20479;-52
2022/05/09 06:46:12;;;;;;;0.50;0.40;;;;;;;18.30;49.08;95830.06;5093221;28;20440;-55
2022/05/09 06:48:41;;;;;;;1.03;1.03;;;;;;;18.14;49.22;95831.53;5093061;28;20449;-55
2022/05/09 06:51:11;;;;;;;0.80;0.80;;;;;;;18.70;50.84;95822.91;5092723;28;20432;-55
2022/05/09 06:53:39;;;;;;;9.00;0.70;;;;;;;19.20;47.82;95816.19;5093041;28;20444;-55
2022/05/09 06:56:08;;;;;;;0.50;0.40;;;;;;;19.51;48.09;95816.16;5092894;28;20533;-55
2022/05/09 06:58:36;;;;;;;0.97;0.53;;;;;;;19.92;45.35;95813.84;5092848;28;20504;-55
2022/05/09 07:01:13;;;;;;;0.57;0.40;;;;;;;19.96;46.64;95812.09;5092803;28;20452;-54
2022/05/09 07:03:42;;;;;;;0.40;0.30;;;;;;;20.71;42.67;95810.78;5092541;28;20914;-54
2022/05/09 07:06:12;;;;;;;1.60;0.50;;;;;;;21.39;39.24;95802.47;5092227;28;20428;-54
2022/05/09 07:08:42;;;;;;;0.40;0.30;;;;;;;20.93;39.33;95802.47;5091972;28;20871;-54
2022/05/09 07:11:12;;;;;;;0.43;0.30;;;;;;;21.59;39.20;95802.81;5091690;28;20470;-55
2022/05/09 07:13:51;;;;;;;0.40;0.40;;;;;;;21.35;38.79;95793.41;5091755;28;20472;-56
2022/05/09 07:16:19;;;;;;;0.60;0.50;;;;;;;21.03;38.22;95788.63;5091604;28;20506;-57
2022/05/09 07:18:48;;;;;;;2.30;0.40;;;;;;;21.58;38.44;95801.25;5091942;28;20890;-57
2022/05/09 07:21:19;;;;;;;0.60;0.40;;;;;;;22.08;39.46;95796.63;5091232;28;20454;-57
2022/05/09 07:23:48;;;;;;;0.83;0.83;;;;;;;22.58;36.16;95789.16;5091657;28;20479;-57
2022/05/09 07:26:16;;;;;;;0.40;0.30;;;;;;;23.07;36.99;95775.78;5091470;28;20424;-57
2022/05/09 07:28:48;;;;;;;0.57;0.40;;;;;;;22.85;34.62;95778.88;5091471;28;20424;-57
2022/05/09 07:31:16;;;;;;;0.90;0.50;;;;;;;22.02;37.73;95715.03;5090632;28;20429;-56
2022/05/09 07:33:45;;;;;;;0.50;0.40;;;;;;;23.34;34.40;95769.69;5091694;28;20413;-56
2022/05/09 07:36:13;;;;;;;0.40;0.30;;;;;;;21.96;34.99;95780.38;5090933;28;20471;-55
2022/05/09 07:38:43;;;;;;;0.93;0.93;;;;;;;22.41;35.38;95775.84;5091395;28;20482;-56
2022/05/09 07:41:12;;;;;;;0.50;0.40;;;;;;;21.81;34.89;95773.59;5091497;28;20798;-56
2022/05/09 07:43:40;;;;;;;0.50;0.40;;;;;;;23.19;35.44;95767.66;5090858;28;20432;-56
2022/05/09 07:46:12;;;;;;;0.40;0.30;;;;;;;23.21;32.98;95760.78;5090880;28;20531;-56
2022/05/09 07:49:00;;;;;;;0.40;0.30;;;;;;;23.22;33.31;95754.25;5091762;28;20448;-56
2022/05/09 07:51:29;;;;;;;0.37;0.30;;;;;;;23.79;33.39;95751.38;5091752;28;20427;-56
2022/05/09 07:53:59;;;;;;;0.50;0.50;;;;;;;24.34;31.62;95745.22;5092009;28;20428;-56
2022/05/09 07:56:27;;;;;;;0.40;0.37;;;;;;;23.93;29.97;95751.00;5092006;28;20899;-56
2022/05/09 07:58:55;;;;;;;0.40;0.30;;;;;;;24.30;30.38;95717.25;5091233;28;20432;-56
2022/05/09 08:01:24;;;;;;;0.40;0.30;;;;;;;24.41;29.53;95741.94;5091970;28;20432;-57
2022/05/09 08:03:53;;;;;;;0.73;0.30;;;;;;;25.32;28.64;95737.25;5092000;28;20884;-57
2022/05/09 08:06:21;;;;;;;0.40;0.40;;;;;;;25.84;28.96;95735.75;5091975;28;20432;-56
2022/05/09 08:08:50;;;;;;;0.40;0.30;;;;;;;26.76;30.30;95734.06;5091840;28;20477;-56
2022/05/09 08:11:21;;;;;;;0.40;0.33;;;;;;;24.75;27.59;95737.75;5091850;28;20433;-56
2022/05/09 08:13:49;;;;;;;0.40;0.30;;;;;;;25.44;29.71;95739.84;5091142;28;20572;-56
2022/05/09 08:16:20;;;;;;;0.60;0.43;;;;;;;25.24;27.91;95730.88;5091951;28;20515;-56
2022/05/09 08:18:49;;;;;;;0.33;0.27;;;;;;;25.27;28.38;95728.22;5091480;28;20432;-56
2022/05/09 08:21:18;;;;;;;1.80;0.97;;;;;;;25.15;27.91;95722.91;5091853;28;20779;-55
2022/05/09 08:23:47;;;;;;;0.30;0.20;;;;;;;24.77;26.98;95719.25;5091549;28;20464;-55
2022/05/09 08:26:18;;;;;;;0.40;0.33;;;;;;;25.38;26.75;95724.97;5091932;28;20413;-55
2022/05/09 08:28:48;;;;;;;0.40;0.30;;;;;;;26.05;25.89;95721.03;5091399;28;20428;-56
2022/05/09 08:31:18;;;;;;;0.73;0.40;;;;;;;25.43;25.29;95720.06;5090987;28;20520;-55
2022/05/09 08:33:49;;;;;;;0.40;0.33;;;;;;;25.19;24.04;95712.94;5090961;28;20512;-56
2022/05/09 08:36:45;;;;;;;0.47;0.40;;;;;;;26.23;23.62;95714.84;5091493;28;20483;-55
2022/05/09 08:39:13;;;;;;;0.40;0.30;;;;;;;27.04;23.88;95680.91;5091085;28;20953;-55
2022/05/09 08:41:53;;;;;;;0.30;0.20;;;;;;;27.24;24.48;95705.31;5091345;28;20489;-55
2022/05/09 08:44:39;;;;;;;0.57;0.40;;;;;;;27.05;24.25;95682.50;5094536;28;20799;-56
2022/05/09 08:47:27;;;;;;;0.40;0.30;;;;;;;27.77;22.59;95695.22;5095458;28;20852;-55
2022/05/09 08:50:07;;;;;;;0.40;0.30;;;;;;;26.51;23.56;95706.44;5095051;28;20535;-55
2022/05/09 08:52:42;;;;;;;0.40;0.30;;;;;;;27.72;24.24;95690.88;5095198;28;20440;-55
2022/05/09 08:55:12;;;;;;;0.40;0.30;;;;;;;27.26;25.37;95692.13;5094185;28;20420;-56
2022/05/09 08:57:45;;;;;;;0.60;0.30;;;;;;;28.26;25.78;95696.59;5093715;28;20510;-55
2022/05/09 09:00:18;;;;;;;0.70;0.70;;;;;;;27.24;25.17;95695.22;5094007;28;20432;-55
2022/05/09 09:02:55;;;;;;;0.40;0.37;;;;;;;26.56;25.54;95697.97;5094845;28;20489;-55
2022/05/09 09:05:26;;;;;;;0.40;0.30;;;;;;;27.34;24.98;95685.66;5094631;28;20425;-55
2022/05/09 09:08:05;;;;;;;0.70;0.50;;;;;;;27.66;24.18;95676.78;5094933;28;20428;-55
2022/05/09 09:10:40;;;;;;;0.40;0.30;;;;;;;29.17;24.44;95681.50;5094166;28;20436;-55
2022/05/09 09:13:23;;;;;;;0.50;0.50;;;;;;;27.67;21.88;95681.09;5094487;28;20458;-55
2022/05/09 09:16:08;;;;;;;0.40;0.30;;;;;;;27.89;21.64;95681.34;5094716;28;20524;-55
2022/05/09 09:18:51;;;;;;;0.40;0.30;;;;;;;28.99;21.64;95667.72;5094788;28;20462;-55
2022/05/09 09:21:24;;;;;;;0.60;0.57;;;;;;;30.02;21.62;95667.19;5094348;28;20476;-55
2022/05/09 09:24:05;;;;;;;0.60;0.30;;;;;;;30.28;22.15;95665.31;5094206;28;20511;-55
2022/05/09 09:26:42;;;;;;;1.43;0.30;;;;;;;28.71;21.99;95665.53;5094100;28;20467;-55
2022/05/09 09:29:18;;;;;;;0.30;0.20;;;;;;;29.84;20.60;95660.09;5094577;28;20420;-55
2022/05/09 09:31:50;;;;;;;1.43;0.77;;;;;;;29.84;21.83;95652.69;5094518;28;20602;-55
2022/05/09 09:34:26;;;;;;;1.73;0.57;;;;;;;29.51;18.27;95655.59;5094682;28;20491;-55
2022/05/09 09:37:01;;;;;;;0.50;0.50;;;;;;;30.69;18.94;95647.41;5094482;28;20500;-55
2022/05/09 09:39:29;;;;;;;0.40;0.40;;;;;;;29.04;18.57;95648.28;5094393;28;20428;-55
2022/05/09 09:41:58;;;;;;;1.70;1.63;;;;;;;28.67;17.87;95640.16;5094245;28;20532;-54
2022/05/09 09:44:29;;;;;;;0.60;0.60;;;;;;;29.69;18.93;95640.09;5094105;28;20507;-55
2022/05/09 09:47:09;;;;;;;0.50;0.30;;;;;;;30.53;17.77;95633.34;5093342;28;20428;-54
2022/05/09 09:49:39;;;;;;;0.40;0.30;;;;;;;31.75;17.52;95590.53;5093930;28;20436;-60
2022/05/09 09:52:17;;;;;;;0.70;0.70;;;;;;;30.06;17.80;95484.03;5094305;28;20420;-60
2022/05/09 09:54:52;;;;;;;0.40;0.40;;;;;;;28.87;19.82;95610.69;5093070;28;20475;-60
2022/05/09 09:57:23;;;;;;;0.40;0.30;;;;;;;28.61;18.24;95599.97;5093679;28;21067;-60
2022/05/09 09:59:51;;;;;;;1.17;0.60;;;;;;;30.05;17.69;95598.09;5094070;28;20459;-60
2022/05/09 10:02:26;;;;;;;0.50;0.30;;;;;;;31.29;18.64;95620.03;5093729;28;20420;-60
2022/05/09 10:04:56;;;;;;;0.30;0.20;;;;;;;31.75;15.98;95579.59;5093460;28;20822;-60
2022/05/09 10:07:31;;;;;;;0.40;0.30;;;;;;;30.59;16.77;95621.63;5093549;28;20498;-60
2022/05/09 10:10:11;;;;;;;0.30;0.20;;;;;;;29.63;17.97;95613.50;5093266;28;20423;-60
2022/05/09 10:12:41;;;;;;;0.47;0.47;;;;;;;30.34;17.87;95609.84;5093163;28;20431;-60
2022/05/09 10:15:29;;;;;;;0.40;0.30;;;;;;;30.21;18.36;95577.81;5093350;28;20489;-60
2022/05/09 10:18:00;;;;;;;3.30;0.60;;;;;;;29.83;17.48;95607.38;5093191;28;20507;-60
2022/05/09 10:20:34;;;;;;;0.37;0.30;;;;;;;30.68;16.45;95564.56;5093606;28;20477;-60
2022/05/09 10:26:01;;;;;;;0.30;0.30;;;;;;;31.73;18.90;95589.38;5093274;28;20468;-60
2022/05/09 10:28:33;;;;;;;0.30;0.20;;;;;;;30.35;17.36;95559.47;5093461;28;20914;-59
2022/05/09 10:31:11;;;;;;;0.40;0.30;;;;;;;30.01;18.47;95586.34;5093290;28;20411;-59
2022/05/09 10:33:47;;;;;;;0.40;0.33;;;;;;;30.24;18.00;95596.16;5092947;28;20432;-59
2022/05/09 10:36:22;;;;;;;1.33;0.50;;;;;;;29.70;17.87;95589.75;5093339;28;20481;-59
2022/05/09 10:38:56;;;;;;;0.40;0.30;;;;;;;31.37;16.44;95583.25;5093176;28;20436;-59
2022/05/09 10:41:34;;;;;;;0.40;0.37;;;;;;;32.29;17.54;95572.66;5092856;28;20504;-59
2022/05/09 10:44:09;;;;;;;0.30;0.30;;;;;;;33.05;17.09;95564.22;5092831;28;20552;-59
2022/05/09 10:46:44;;;;;;;0.43;0.40;;;;;;;32.81;16.01;95581.69;5093300;28;20504;-56
2022/05/09 10:49:33;;;;;;;0.33;0.30;;;;;;;31.97;16.35;95561.88;5092911;28;20492;-56
2022/05/09 10:52:13;;;;;;;0.30;0.20;;;;;;;31.53;16.85;95564.41;5092882;28;20432;-57
2022/05/09 10:54:49;;;;;;;0.60;0.60;;;;;;;32.13;16.69;95560.63;5092645;28;20423;-56
2022/05/09 10:57:25;;;;;;;0.47;0.43;;;;;;;31.24;16.13;95558.25;5091243;28;20511;-57
2022/05/09 11:00:18;;;;;;;0.30;0.20;;;;;;;32.43;16.39;95550.63;5092098;28;20515;-56
2022/05/09 11:02:57;;;;;;;0.30;0.30;;;;;;;32.76;16.46;95537.41;5091768;28;20992;-56
2022/05/09 11:05:34;;;;;;;1.53;0.30;;;;;;;33.39;15.97;95545.03;5092136;28;20423;-56
2022/05/09 11:08:12;;;;;;;0.30;0.20;;;;;;;33.68;16.71;95545.47;5091957;28;20431;-56
2022/05/09 11:10:49;;;;;;;1.07;0.67;;;;;;;31.93;16.01;95535.63;5092696;28;20431;-56
2022/05/09 11:13:27;;;;;;;0.53;0.37;;;;;;;31.37;17.51;95542.91;5092657;28;20465;-57
2022/05/09 11:16:06;;;;;;;0.87;0.30;;;;;;;31.75;16.03;95541.19;5092232;28;20416;-57
2022/05/09 11:18:56;;;;;;;0.53;0.40;;;;;;;32.83;16.09;95534.59;5091947;28;20467;-56
2022/05/09 11:21:41;;;;;;;0.40;0.40;;;;;;;32.04;18.01;95528.16;5092361;28;20466;-56
2022/05/09 11:24:24;;;;;;;0.33;0.27;;;;;;;32.81;17.50;95517.75;5092040;28;20428;-57
2022/05/09 11:26:57;;;;;;;0.40;0.40;;;;;;;32.13;16.37;95516.75;5091984;28;20436;-56
2022/05/09 11:29:39;;;;;;;3.37;0.37;;;;;;;31.13;16.95;95519.13;5092124;28;20450;-57
2022/05/09 11:32:26;;;;;;;0.40;0.30;;;;;;;30.54;16.98;95518.03;5091876;28;20894;-57
2022/05/09 11:35:17;;;;;;;0.40;0.30;;;;;;;30.95;16.89;95496.50;5091946;28;20428;-58
2022/05/09 11:37:59;;;;;;;0.40;0.30;;;;;;;31.56;15.43;95513.50;5091750;28;20900;-58
2022/05/09 11:40:34;;;;;;;0.40;0.40;;;;;;;32.25;14.62;95505.28;5091687;28;20484;-57
2022/05/09 11:43:32;;;;;;;0.30;0.30;;;;;;;31.66;16.74;95507.19;5091624;28;20481;-58
2022/05/09 11:46:12;;;;;;;0.90;0.30;;;;;;;32.45;17.83;95482.38;5091318;28;20917;-58
2022/05/09 11:48:54;;;;;;;0.60;0.60;;;;;;;31.64;16.58;95499.38;5091842;28;20824;-58
2022/05/09 11:51:34;;;;;;;0.77;0.77;;;;;;;31.83;16.21;95493.38;5091786;28;20433;-60
2022/05/09 11:54:08;;;;;;;0.40;0.40;;;;;;;29.94;15.87;95495.34;5092242;28;20476;-60
2022/05/09 11:56:43;;;;;;;0.37;0.30;;;;;;;29.43;17.11;95496.38;5091789;28;20467;-61
2022/05/09 11:59:17;;;;;;;0.50;0.40;;;;;;;28.08;18.34;95498.63;5091541;28;20906;-61
2022/05/09 12:02:04;;;;;;;0.40;0.30;;;;;;;28.08;18.48;95501.38;5091715;28;20456;-60
2022/05/09 12:04:40;;;;;;;0.30;0.20;;;;;;;27.83;18.95;95470.34;5091714;28;20423;-60